Accueil
METAR-TAF:

METAR-TAF

Aéroports :

Ambae, Vanuatu

latitude: 15-18-24S, longitude: 167-58-02E, altitude: 51 m

Observation

Le bulletin a été fait il y a 2 heures et 27 minutes, à 18:00 UTC
Vent 3 kt de sud-est
Température 25°C
Humidité 94%
Pression 1011 hPa

METAR: NVSG 221800Z AUTO 14003KT //// // NCD 25/24 Q1011 RMK NIL

Heure: 07:27 (20:27 UTC)

Prévision

Le bulletin a été fait il y a 4 heures et 27 minutes, à 16:00 UTC
Prévision valable du 22 à 18 UTC au 23 à 18 UTC
Vent 10 kt de sud
Visibilité: 8000 m
Nuages épars à une hauteur de 2000 ft
Nuages fragmentés à une hauteur de 1800 ft
averses de pluie

TAF: NVSG 221600Z 2218/2318 19010KT 9999 SCT020 INTER 2218/2224 8000 SHRA BKN018

Observations et prévisions météorologiques de plus de 4000 aéroports (messages METAR et TAF).

Les stations disponibles sont représentées par des disques jaunes et rouges sur la carte.

Passer la souris dessus pour voir le nom de la station.

Cliquer dessus pour voir les observations et prévisions météorologiques.

Pour changer de carte: cliquez sur les boutons verts avec une croix noire pour zoomer, sur le bouton vert avec un tiret pour effectuer un zoom arrière, ou sur les flèches vertes pour les cartes adjacentes.


METAR-TAF: